Suggestion Search

Define a bounding box (note: it will not wrap North/South over poles). If the range is zero degrees, a bounding box will not be used to constrain the search.

Centered On °   °

Match text in the suggestion title, science rationale or special notes. The search is case-insensitive. % is a wildcard (_ for a single character).

Find
Search

You may select science themes to limit query, otherwise suggestions from all themes will be returned.

Multiple values may be selected (shift + click).

  Rows per page
49 records found, displaying all records.1
ID Suggestion Title Latitude Longitude Repeat Created Observation ID
197164 Hydraotes Chaos terrain sample 0.315 325.530 1 2021-10-28 ESP_071912_1805
197162 Subsidence depression -0.024 330.147 1 2021-10-28 ESP_071925_1800
196900 Northern plains crater rim material 30.233 319.151 1 2021-10-05 ESP_071556_2105
196898 Subsidence depression -0.024 330.147 1 2021-10-05 ESP_071503_1800
196896 Northern plains crater rim materials 33.595 321.984 1 2021-10-05
196894 Fluvial bedforms near V1L 21.662 312.061 1 2021-10-05
196892 Sedimentary deposit near Viking 1 Lander 22.205 312.316 1 2021-10-05
196882 Layers in Hydraotes Chaos 1.358 327.438 1 2021-10-05 ESP_071569_1815
196876 Hydraotes Chaos terrain sample 0.315 325.530 1 2021-10-05 ESP_071490_1805
196868 Bedforms close to Viking 1 Lander 22.330 312.181 STEREO 2021-10-05 ESP_072387_2025
196866 Bedforms close to Viking 1 Lander 22.330 312.181 STEREO 2021-10-05 ESP_072321_2025
99554 Mantled eroded bedrock in Tiu Valles -2.807 325.897 1 2014-04-29
99552 Eroded bedrock in Tiu Valles -3.139 325.706 1 2014-04-29 ESP_047831_1770
99550 Eroded bedrock in upper Simud Valles 2.419 326.582 1 2014-04-29
99548 Eroded bedrock in Tiu Valles 3.173 328.773 1 2014-04-29 ESP_048912_1830
99546 Rippled surface in Tiu Valles 16.513 324.509 STEREO 2014-04-29 ESP_042385_1965
99544 Rippled surface in Tiu Valles 16.513 324.509 STEREO 2014-04-29 ESP_036754_1965
80562 Streamlined features and fractures in Hebrus Valles 21.816 125.670 STEREO 2012-10-30 ESP_058836_2020
80560 Streamlined features and fractures in Hebrus Valles 21.816 125.670 STEREO 2012-10-30 ESP_050805_2020
80558 Knickpoint retreat at pit 20.719 126.688 STEREO 2012-10-30 ESP_053574_2010
80556 Knickpoint retreat at pit 20.719 126.688 STEREO 2012-10-30 ESP_053574_2010
78988 Zone of subsidence and early stages of chaos formaiton -1.523 328.159 STEREO 2012-09-28
78986 Zone of subsidence and early stages of chaos formaiton -1.523 328.159 STEREO 2012-09-28
76932 Lower reaches of Shalbatana Vallis 9.389 320.080 STEREO 2012-08-18 ESP_042873_1895
76930 Lower reaches of Shalbatana Vallis 9.389 320.080 STEREO 2012-08-18 ESP_036952_1895
76928 Mid-section of Shalbatana Vallis 7.478 318.017 STEREO 2012-08-18 ESP_036807_1875
76926 Mid-section of Shalbatana Vallis 7.478 318.017 STEREO 2012-08-18 ESP_029146_1875
76924 Scarp transition into Ganges Chasma floor -8.441 318.151 STEREO 2012-08-18 ESP_046315_1715
76922 Scarp transition into Ganges Chasma floor -8.441 318.151 STEREO 2012-08-18 ESP_045326_1715
76920 Erosional morphologies in outflow channel bend of Shalbatana Vallis 8.697 319.019 STEREO 2012-08-17 ESP_037097_1890
76918 Erosional morphologies in outflow channel bend of Shalbatana Vallis 8.697 319.019 STEREO 2012-08-17 ESP_035396_1890
76916 Erosional morphologies in lower Shalbatana Vallis 8.738 319.241 STEREO 2012-08-17 ESP_029291_1890
76914 Erosional morphologies in lower Shalbatana Vallis 8.738 319.241 STEREO 2012-08-17 ESP_028869_1890
73876 Outflow channel floor in Hydraotes Chaos -1.526 325.621 STEREO 2012-05-14 ESP_066596_1785
73874 Outflow channel floor in Hydraotes Chaos -1.526 325.621 STEREO 2012-05-14 ESP_066530_1785
73486 Chaos and outflow channel floor transition in Osuga Valles -14.823 322.249 STEREO 2012-05-01 ESP_027880_1650
73484 Chaos and outflow channel floor transition in Osuga Valles -14.823 322.249 STEREO 2012-05-01 ESP_027392_1650
73482 Collapsed channel margin -14.488 322.640 STEREO 2012-05-01 ESP_044218_1655
73480 Collapsed channel margin -14.488 322.640 STEREO 2012-05-01 ESP_044073_1655
73360 Scarp at zone of subsidence -0.055 329.457 STEREO 2012-04-30 ESP_046064_1800
73358 Scarp at zone of subsidence -0.055 329.457 STEREO 2012-04-30 ESP_045497_1800
73356 Layers exhumed at zone of outflow channel dissection 3.885 332.646 STEREO 2012-04-30 ESP_028473_1840
73354 Layers exhumed at zone of outflow channel dissection 3.885 332.646 STEREO 2012-04-30 ESP_028196_1840
73352 Flow lobes resting on the elevated platform of a moated crater 1.538 334.360 STEREO 2012-04-30 ESP_027985_1815
73350 Flow lobes resting on the elevated platform of a moated crater 1.538 334.360 STEREO 2012-04-30 ESP_027708_1815
73348 Inverted channel and terminal fan 11.880 314.948 STEREO 2012-04-30 ESP_034394_1920
73346 Inverted channel and terminal fan 11.880 314.948 STEREO 2012-04-30 ESP_034249_1920
73344 Domical structures in the vecinity of fluvial deposits 11.994 315.126 STEREO 2012-04-30 ESP_037783_1920
73342 Domical structures in the vecinity of fluvial deposits 11.994 315.126 STEREO 2012-04-30 ESP_037783_1920

Each suggestion is given a unique ID. A stereo suggestion will be made into a pair at the discretion of the Science Theme Lead.

Suggestion title.

Latitudes are expressed in planetocentric degrees.

Longitude are measured in degrees and range east from 0 to 360.

1 for a single suggestion, STEREO for a stereo suggestion, otherwise the number of suggestions in a seasonal or other repeat set.

The date on which the suggestion was created.

If the suggestion has been retired, a link to the observation page.

The username of the suggester.